createdAt,value
2019-04-06T00:01:43.037Z,91.20
2019-04-06T00:04:12.128Z,91.20
2019-04-06T00:06:40.744Z,91.00
2019-04-06T00:09:09.346Z,91.30
2019-04-06T00:11:38.288Z,91.20
2019-04-06T00:14:07.382Z,91.40
2019-04-06T00:16:35.971Z,91.50
2019-04-06T00:19:04.610Z,91.60
2019-04-06T00:21:33.299Z,91.90
2019-04-06T00:24:01.906Z,91.70
2019-04-06T00:26:30.530Z,91.80
2019-04-06T00:28:59.583Z,91.90
2019-04-06T00:31:29.831Z,91.90
2019-04-06T00:33:58.509Z,91.80
2019-04-06T00:36:27.130Z,91.80
2019-04-06T00:38:55.785Z,91.90
2019-04-06T00:41:24.343Z,92.00
2019-04-06T00:43:52.955Z,92.00
2019-04-06T00:46:21.919Z,91.90
2019-04-06T00:48:50.526Z,92.20
2019-04-06T00:51:19.135Z,92.30
2019-04-06T00:53:47.727Z,92.20
2019-04-06T00:56:16.362Z,92.30
2019-04-06T00:58:44.962Z,92.30
2019-04-06T01:01:14.026Z,92.10
2019-04-06T01:03:42.641Z,92.30
2019-04-06T01:06:11.448Z,92.30
2019-04-06T01:08:40.036Z,92.30
2019-04-06T01:11:08.645Z,92.40
2019-04-06T01:13:38.120Z,92.70
2019-04-06T01:16:06.805Z,92.70
2019-04-06T01:18:35.583Z,92.70
2019-04-06T01:21:04.533Z,92.80
2019-04-06T01:23:33.131Z,92.70
2019-04-06T01:26:07.357Z,92.80
2019-04-06T01:28:32.471Z,92.90
2019-04-06T01:31:01.108Z,92.90
2019-04-06T01:33:30.103Z,92.90
2019-04-06T01:35:58.702Z,93.00
2019-04-06T01:38:27.331Z,92.90
2019-04-06T01:40:55.935Z,92.80
2019-04-06T01:43:24.543Z,92.90
2019-04-06T01:45:53.237Z,92.90
2019-04-06T01:48:21.849Z,93.00
2019-04-06T01:50:50.489Z,93.10
2019-04-06T01:53:19.087Z,93.00
2019-04-06T01:55:47.704Z,93.20
2019-04-06T01:58:16.316Z,93.20
2019-04-06T02:00:46.582Z,93.30
2019-04-06T02:03:15.190Z,93.50
2019-04-06T02:05:43.795Z,93.40
2019-04-06T02:08:13.712Z,93.40
2019-04-06T02:10:42.671Z,93.50
2019-04-06T02:13:11.317Z,93.50
2019-04-06T02:15:39.893Z,93.50
2019-04-06T02:18:08.462Z,93.40
2019-04-06T02:20:37.062Z,93.30
2019-04-06T02:23:05.635Z,93.60
2019-04-06T02:25:34.239Z,93.50
2019-04-06T02:28:03.207Z,93.90
2019-04-06T02:30:35.912Z,93.90
2019-04-06T02:33:15.136Z,93.80
2019-04-06T02:36:03.401Z,93.90
2019-04-06T02:38:39.307Z,93.80
2019-04-06T02:41:09.942Z,94.00
2019-04-06T02:43:40.529Z,94.10
2019-04-06T02:46:09.216Z,93.90
2019-04-06T02:48:37.818Z,93.90
2019-04-06T02:51:06.413Z,94.00
2019-04-06T02:53:34.962Z,94.00
2019-04-06T02:56:03.565Z,94.20
2019-04-06T02:58:32.224Z,94.10
2019-04-06T03:01:00.997Z,94.00
2019-04-06T03:03:29.964Z,94.10
2019-04-06T03:05:58.538Z,94.10
2019-04-06T03:08:27.137Z,94.20
2019-04-06T03:10:56.112Z,94.30
2019-04-06T03:13:24.804Z,94.50
2019-04-06T03:15:53.451Z,94.40
2019-04-06T03:18:22.332Z,94.50
2019-04-06T03:20:51.396Z,94.40
2019-04-06T03:23:19.978Z,94.50
2019-04-06T03:25:48.937Z,94.40
2019-04-06T03:28:17.518Z,94.50
2019-04-06T03:30:46.160Z,94.50
2019-04-06T03:33:14.764Z,94.60
2019-04-06T03:35:47.600Z,94.50
2019-04-06T03:38:13.734Z,94.50
2019-04-06T03:40:42.260Z,94.60
2019-04-06T03:43:10.854Z,94.60
2019-04-06T03:45:39.427Z,94.80
2019-04-06T03:48:08.141Z,94.90
2019-04-06T03:50:36.671Z,94.70
2019-04-06T03:53:05.215Z,94.90
2019-04-06T03:55:33.829Z,94.90
2019-04-06T03:58:02.315Z,94.90
2019-04-06T04:00:30.832Z,95.00
2019-04-06T04:02:59.310Z,95.00
2019-04-06T04:05:28.463Z,94.90
2019-04-06T04:07:56.943Z,94.80
2019-04-06T04:10:34.241Z,94.70
2019-04-06T04:13:03.158Z,94.80
2019-04-06T04:15:31.687Z,95.00
2019-04-06T04:18:00.236Z,95.00
2019-04-06T04:20:29.073Z,95.00
2019-04-06T04:22:57.553Z,95.10
2019-04-06T04:25:26.635Z,95.10
2019-04-06T04:27:55.272Z,95.20
2019-04-06T04:30:32.211Z,95.20
2019-04-06T04:32:53.922Z,95.30
2019-04-06T04:35:22.410Z,95.30
2019-04-06T04:37:50.909Z,95.30
2019-04-06T04:40:19.397Z,95.20
2019-04-06T04:42:47.879Z,95.70
2019-04-06T04:45:16.448Z,95.50
2019-04-06T04:47:44.974Z,95.50
2019-04-06T04:50:13.618Z,95.40
2019-04-06T04:52:42.095Z,95.50
2019-04-06T04:55:11.170Z,95.50
2019-04-06T04:57:41.463Z,95.60
2019-04-06T05:00:10.255Z,95.60
2019-04-06T05:02:38.786Z,95.70
2019-04-06T05:05:09.377Z,95.70
2019-04-06T05:07:37.668Z,95.70
2019-04-06T05:10:07.030Z,95.70
2019-04-06T05:12:35.745Z,95.80
2019-04-06T05:15:07.280Z,95.90
2019-04-06T05:17:35.723Z,95.80
2019-04-06T05:20:06.245Z,95.90
2019-04-06T05:22:34.698Z,96.10
2019-04-06T05:25:03.352Z,95.90
2019-04-06T05:27:32.142Z,96.00
2019-04-06T05:30:00.952Z,96.00
2019-04-06T05:32:29.434Z,96.00
2019-04-06T05:34:58.388Z,96.00
2019-04-06T05:37:29.702Z,95.90
2019-04-06T05:39:59.996Z,96.10
2019-04-06T05:42:29.082Z,96.10
2019-04-06T05:44:57.562Z,95.90
2019-04-06T05:47:26.390Z,96.00
2019-04-06T05:49:55.337Z,96.00
2019-04-06T05:52:23.848Z,96.00
2019-04-06T05:54:52.378Z,95.90
2019-04-06T05:57:20.845Z,95.90
2019-04-06T05:59:49.337Z,96.10
2019-04-06T06:02:17.914Z,96.00
2019-04-06T06:04:46.786Z,96.00
2019-04-06T06:07:15.271Z,96.00
2019-04-06T06:09:43.814Z,96.00
2019-04-06T06:12:13.518Z,96.00
2019-04-06T06:14:42.005Z,96.00
2019-04-06T06:17:10.525Z,95.90
2019-04-06T06:19:38.980Z,96.00
2019-04-06T06:22:08.011Z,95.80
2019-04-06T06:24:36.563Z,95.90
2019-04-06T06:27:05.116Z,95.80
2019-04-06T06:29:33.569Z,95.70
2019-04-06T06:32:02.121Z,95.70
2019-04-06T06:34:30.707Z,95.60
2019-04-06T06:36:59.161Z,95.50
2019-04-06T06:39:27.619Z,95.30
2019-04-06T06:41:56.112Z,95.10
2019-04-06T06:44:24.589Z,95.20
2019-04-06T06:46:53.387Z,95.20
2019-04-06T06:49:21.858Z,95.00
2019-04-06T06:51:50.328Z,95.00
2019-04-06T06:54:19.271Z,94.40
2019-04-06T06:56:47.786Z,94.20
2019-04-06T06:59:16.344Z,94.40
2019-04-06T07:01:44.795Z,94.40
2019-04-06T07:04:13.252Z,94.50
2019-04-06T07:06:41.741Z,93.60
2019-04-06T07:09:10.351Z,93.20
2019-04-06T07:11:38.818Z,93.30
2019-04-06T07:14:07.361Z,93.60
2019-04-06T07:16:35.841Z,93.70
2019-04-06T07:19:04.479Z,93.50
2019-04-06T07:21:33.098Z,93.80
2019-04-06T07:24:01.659Z,94.30
2019-04-06T07:26:30.207Z,94.20
2019-04-06T07:28:58.727Z,93.90
2019-04-06T07:31:27.481Z,94.30
2019-04-06T07:33:56.145Z,93.70
2019-04-06T07:36:24.668Z,93.90
2019-04-06T07:38:53.241Z,94.00
2019-04-06T07:41:21.912Z,93.50
2019-04-06T07:43:50.617Z,93.20
2019-04-06T07:46:19.086Z,92.70
2019-04-06T07:48:47.603Z,92.90
2019-04-06T07:51:16.168Z,92.40
2019-04-06T07:53:44.631Z,92.30
2019-04-06T07:56:13.542Z,92.50
2019-04-06T07:58:48.670Z,93.00
2019-04-06T08:01:12.265Z,92.90
2019-04-06T08:03:40.754Z,92.40
2019-04-06T08:06:09.350Z,92.50
2019-04-06T08:08:37.839Z,92.70
2019-04-06T08:11:06.325Z,92.90
2019-04-06T08:13:35.115Z,92.90
2019-04-06T08:16:04.184Z,92.20
2019-04-06T08:18:32.738Z,91.60
2019-04-06T08:21:01.366Z,90.90
2019-04-06T08:23:29.861Z,90.90
2019-04-06T08:25:58.380Z,91.40
2019-04-06T08:28:26.903Z,91.70
2019-04-06T08:30:55.551Z,91.30
2019-04-06T08:33:24.020Z,91.10
2019-04-06T08:35:52.553Z,90.90
2019-04-06T08:38:21.019Z,90.00
2019-04-06T08:40:49.466Z,89.60
2019-04-06T08:43:17.937Z,86.50
2019-04-06T08:45:46.390Z,85.30
2019-04-06T08:48:14.953Z,86.50
2019-04-06T08:50:43.502Z,87.10
2019-04-06T08:53:12.308Z,88.00
2019-04-06T08:55:41.043Z,87.90
2019-04-06T08:58:09.553Z,86.20
2019-04-06T09:00:38.046Z,85.40
2019-04-06T09:03:06.561Z,83.70
2019-04-06T09:05:35.047Z,82.00
2019-04-06T09:08:03.491Z,80.80
2019-04-06T09:10:31.997Z,81.40
2019-04-06T09:13:00.480Z,80.60
2019-04-06T09:15:29.226Z,76.80
2019-04-06T09:17:57.709Z,79.30
2019-04-06T09:20:26.237Z,75.90
2019-04-06T09:22:55.064Z,74.70
2019-04-06T09:25:23.743Z,79.90
2019-04-06T09:27:52.296Z,79.20
2019-04-06T09:30:20.866Z,76.60
2019-04-06T09:32:49.356Z,75.90
2019-04-06T09:35:18.048Z,74.40
2019-04-06T09:37:46.686Z,77.50
2019-04-06T09:40:15.214Z,79.30
2019-04-06T09:42:43.669Z,75.70
2019-04-06T09:45:19.566Z,73.40
2019-04-06T09:47:52.724Z,75.70
2019-04-06T09:50:29.098Z,77.40
2019-04-06T09:52:59.204Z,78.30
2019-04-06T09:55:29.317Z,82.20
2019-04-06T09:58:15.996Z,81.60
2019-04-06T10:00:46.181Z,81.00
2019-04-06T10:03:22.097Z,82.60
2019-04-06T10:05:55.437Z,81.30
2019-04-06T10:08:28.319Z,82.00
2019-04-06T10:11:10.498Z,82.50
2019-04-06T10:13:46.743Z,83.50
2019-04-06T10:16:16.982Z,86.40
2019-04-06T10:18:50.048Z,84.80
2019-04-06T10:21:20.578Z,87.90
2019-04-06T10:24:07.046Z,82.30
2019-04-06T10:26:52.659Z,81.20
2019-04-06T10:29:31.934Z,80.60
2019-04-06T10:32:02.397Z,80.50
2019-04-06T10:34:41.728Z,81.60
2019-04-06T10:37:12.047Z,84.10
2019-04-06T10:39:42.428Z,81.10
2019-04-06T10:42:21.670Z,79.30
2019-04-06T10:44:51.859Z,80.00
2019-04-06T10:47:27.826Z,76.60
2019-04-06T10:50:06.550Z,76.30
2019-04-06T10:52:49.032Z,74.40
2019-04-06T10:55:19.222Z,71.60
2019-04-06T10:57:49.478Z,75.30
2019-04-06T11:00:28.967Z,71.00
2019-04-06T11:03:01.647Z,70.00
2019-04-06T11:05:40.862Z,70.40
2019-04-06T11:08:29.107Z,74.90
2019-04-06T11:11:03.085Z,78.40
2019-04-06T11:13:33.609Z,76.00
2019-04-06T11:16:19.845Z,77.20
2019-04-06T11:18:59.158Z,75.50
2019-04-06T11:21:31.947Z,74.90
2019-04-06T11:24:05.013Z,81.10
2019-04-06T11:26:35.200Z,76.80
2019-04-06T11:29:05.509Z,79.10
2019-04-06T11:31:44.892Z,74.50
2019-04-06T11:34:18.212Z,73.10
2019-04-06T11:37:04.900Z,71.80
2019-04-06T11:39:47.205Z,76.40
2019-04-06T11:42:23.374Z,73.70
2019-04-06T11:44:56.469Z,75.60
2019-04-06T11:47:35.393Z,78.30
2019-04-06T11:50:23.094Z,73.00
2019-04-06T11:53:09.398Z,77.50
2019-04-06T11:55:58.052Z,73.70
2019-04-06T11:58:28.317Z,72.20
2019-04-06T12:01:01.281Z,70.00
2019-04-06T12:03:34.714Z,67.70
2019-04-06T12:06:11.308Z,67.20
2019-04-06T12:08:57.909Z,65.60
2019-04-06T12:11:31.010Z,65.00
2019-04-06T12:14:01.219Z,66.70
2019-04-06T12:16:31.778Z,64.40
2019-04-06T12:19:11.328Z,62.70
2019-04-06T12:22:00.113Z,63.20
2019-04-06T12:24:45.621Z,66.40
2019-04-06T12:27:15.863Z,70.70
2019-04-06T12:29:55.692Z,70.90
2019-04-06T12:32:55.035Z,70.30
2019-04-06T12:35:22.635Z,72.60
2019-04-06T12:38:09.406Z,71.70
2019-04-06T12:40:42.305Z,71.00
2019-04-06T12:43:12.953Z,72.50
2019-04-06T12:45:59.574Z,72.40
2019-04-06T12:48:38.548Z,67.80
2019-04-06T12:51:19.423Z,66.90
2019-04-06T12:54:14.782Z,67.30
2019-04-06T12:56:49.339Z,66.60
2019-04-06T12:59:25.585Z,69.80
2019-04-06T13:02:11.081Z,68.90
2019-04-06T13:04:53.756Z,72.50
2019-04-06T13:07:24.090Z,70.10
2019-04-06T13:10:02.958Z,68.80
2019-04-06T13:12:36.353Z,72.30
2019-04-06T13:15:34.212Z,70.40
2019-04-06T13:18:07.447Z,70.70
2019-04-06T13:20:54.353Z,69.30
2019-04-06T13:23:24.518Z,68.10
2019-04-06T13:26:03.589Z,68.00
2019-04-06T13:28:45.982Z,66.30
2019-04-06T13:31:16.561Z,68.70
2019-04-06T13:34:01.880Z,65.80
2019-04-06T13:36:32.067Z,64.80
2019-04-06T13:39:08.083Z,63.30
2019-04-06T13:41:38.271Z,63.60
2019-04-06T13:44:08.388Z,67.00
2019-04-06T13:46:44.487Z,63.40
2019-04-06T13:49:14.682Z,64.60
2019-04-06T13:51:54.100Z,65.20
2019-04-06T13:54:33.774Z,65.40
2019-04-06T13:57:13.013Z,65.40
2019-04-06T13:59:52.185Z,62.30
2019-04-06T14:02:22.358Z,62.90
2019-04-06T14:04:58.535Z,61.20
2019-04-06T14:07:44.866Z,64.40
2019-04-06T14:10:15.491Z,59.10
2019-04-06T14:12:45.699Z,58.20
2019-04-06T14:15:15.887Z,60.40
2019-04-06T14:18:02.424Z,59.10
2019-04-06T14:20:38.987Z,59.00
2019-04-06T14:23:09.415Z,55.20
2019-04-06T14:25:39.559Z,58.90
2019-04-06T14:28:18.849Z,59.70
2019-04-06T14:31:01.292Z,60.50
2019-04-06T14:33:34.141Z,61.40
2019-04-06T14:36:20.785Z,62.60
2019-04-06T14:39:08.989Z,60.20
2019-04-06T14:41:55.106Z,57.60
2019-04-06T14:44:27.995Z,62.00
2019-04-06T14:46:58.361Z,57.50
2019-04-06T14:49:33.048Z,60.60
2019-04-06T14:52:19.734Z,58.20
2019-04-06T14:55:02.450Z,61.80
2019-04-06T14:57:32.625Z,62.00
2019-04-06T15:00:03.012Z,60.80
2019-04-06T15:02:33.209Z,61.80
2019-04-06T15:05:06.250Z,62.10
2019-04-06T15:07:36.436Z,61.80
2019-04-06T15:10:10.852Z,60.20
2019-04-06T15:12:57.157Z,60.30
2019-04-06T15:15:36.305Z,62.90
2019-04-06T15:18:12.646Z,64.70
2019-04-06T15:20:47.841Z,63.80
2019-04-06T15:23:36.322Z,61.80
2019-04-06T15:26:22.343Z,63.50
2019-04-06T15:29:00.425Z,61.90
2019-04-06T15:31:33.280Z,65.10
2019-04-06T15:34:15.591Z,63.50
2019-04-06T15:36:51.347Z,60.60
2019-04-06T15:39:21.647Z,63.50
2019-04-06T15:41:57.273Z,63.30
2019-04-06T15:44:26.581Z,61.60
2019-04-06T15:47:11.897Z,60.50
2019-04-06T15:49:45.047Z,60.00
2019-04-06T15:52:33.365Z,59.80
2019-04-06T15:55:06.360Z,60.10
2019-04-06T15:57:42.413Z,61.20
2019-04-06T16:00:22.146Z,62.10
2019-04-06T16:02:55.303Z,60.40
2019-04-06T16:05:25.643Z,63.10
2019-04-06T16:08:14.354Z,60.30
2019-04-06T16:11:01.060Z,60.60
2019-04-06T16:13:39.932Z,62.80
2019-04-06T16:16:16.059Z,64.20
2019-04-06T16:19:02.397Z,64.30
2019-04-06T16:21:38.821Z,65.30
2019-04-06T16:24:14.648Z,65.80
2019-04-06T16:26:47.886Z,65.90
2019-04-06T16:29:33.063Z,69.20
2019-04-06T16:32:12.511Z,68.20
2019-04-06T16:34:40.868Z,69.30
2019-04-06T16:37:16.893Z,69.40
2019-04-06T16:39:47.394Z,67.70
2019-04-06T16:42:32.589Z,68.70
2019-04-06T16:45:05.487Z,68.70
2019-04-06T16:47:47.896Z,69.50
2019-04-06T16:50:29.850Z,69.60
2019-04-06T16:53:15.742Z,69.30
2019-04-06T16:55:52.290Z,70.80
2019-04-06T16:58:25.431Z,69.20
2019-04-06T17:00:58.242Z,69.20
2019-04-06T17:03:28.608Z,70.10
2019-04-06T17:06:01.420Z,69.60
2019-04-06T17:08:34.597Z,70.40
2019-04-06T17:11:17.488Z,69.20
2019-04-06T17:13:56.937Z,70.10
2019-04-06T17:16:43.435Z,70.00
2019-04-06T17:19:19.181Z,69.70
2019-04-06T17:21:57.951Z,70.90
2019-04-06T17:24:30.773Z,70.70
2019-04-06T17:27:00.902Z,71.00
2019-04-06T17:29:40.485Z,72.20
2019-04-06T17:32:11.079Z,72.20
2019-04-06T17:34:52.735Z,72.30
2019-04-06T17:37:13.394Z,72.60
2019-04-06T17:39:49.389Z,71.30
2019-04-06T17:42:35.663Z,73.70
2019-04-06T17:45:10.975Z,73.20
2019-04-06T17:47:57.804Z,74.90
2019-04-06T17:50:44.783Z,73.30
2019-04-06T17:53:21.143Z,75.20
2019-04-06T17:56:09.174Z,75.60
2019-04-06T17:58:53.974Z,75.50
2019-04-06T18:01:24.089Z,76.50
2019-04-06T18:04:09.399Z,76.20
2019-04-06T18:06:42.374Z,76.50
2019-04-06T18:09:18.162Z,77.40
2019-04-06T18:11:54.328Z,77.40
2019-04-06T18:14:22.826Z,77.10
2019-04-06T18:16:51.579Z,76.80
2019-04-06T18:19:20.488Z,77.50
2019-04-06T18:21:49.260Z,78.00
2019-04-06T18:24:17.934Z,78.40
2019-04-06T18:26:46.491Z,77.70
2019-04-06T18:29:15.158Z,79.00
2019-04-06T18:32:01.635Z,77.40
2019-04-06T18:34:30.113Z,78.30
2019-04-06T18:37:06.020Z,78.40
2019-04-06T18:39:34.637Z,77.60
2019-04-06T18:42:03.172Z,77.70
2019-04-06T18:44:32.028Z,77.80
2019-04-06T18:47:00.873Z,77.10
2019-04-06T18:49:29.478Z,75.80
2019-04-06T18:51:58.326Z,76.10
2019-04-06T18:54:26.945Z,76.20
2019-04-06T18:56:55.790Z,76.10
2019-04-06T18:59:24.859Z,77.50
2019-04-06T19:01:54.099Z,78.10
2019-04-06T19:04:22.711Z,78.80
2019-04-06T19:06:51.481Z,79.40
2019-04-06T19:09:23.728Z,79.60
2019-04-06T19:11:55.481Z,80.80
2019-04-06T19:14:20.452Z,80.40
2019-04-06T19:16:49.047Z,80.70
2019-04-06T19:19:17.514Z,81.00
2019-04-06T19:21:45.999Z,81.00
2019-04-06T19:24:14.499Z,82.30
2019-04-06T19:26:43.406Z,81.90
2019-04-06T19:29:12.533Z,82.00
2019-04-06T19:31:41.501Z,81.60
2019-04-06T19:34:10.285Z,81.30
2019-04-06T19:36:38.810Z,81.40
2019-04-06T19:39:10.913Z,82.00
2019-04-06T19:41:39.536Z,81.80
2019-04-06T19:44:08.344Z,81.10
2019-04-06T19:46:36.838Z,80.60
2019-04-06T19:49:05.369Z,80.90
2019-04-06T19:51:33.901Z,82.10
2019-04-06T19:54:04.685Z,82.70
2019-04-06T19:56:35.650Z,82.10
2019-04-06T19:59:04.487Z,82.00
2019-04-06T20:01:33.259Z,81.90
2019-04-06T20:04:01.742Z,82.30
2019-04-06T20:06:30.704Z,81.70
2019-04-06T20:08:59.652Z,79.60
2019-04-06T20:11:28.202Z,77.90
2019-04-06T20:13:57.217Z,77.30
2019-04-06T20:16:25.734Z,76.70
2019-04-06T20:18:54.346Z,75.50
2019-04-06T20:21:23.234Z,75.50
2019-04-06T20:23:51.732Z,76.40
2019-04-06T20:26:20.644Z,76.80
2019-04-06T20:28:49.628Z,77.30
2019-04-06T20:31:18.448Z,77.80
2019-04-06T20:33:51.597Z,78.20
2019-04-06T20:36:17.156Z,78.10
2019-04-06T20:38:46.011Z,78.50
2019-04-06T20:41:14.614Z,78.70
2019-04-06T20:43:43.131Z,78.90
2019-04-06T20:46:11.944Z,78.40
2019-04-06T20:48:40.490Z,78.10
2019-04-06T20:51:08.950Z,78.30
2019-04-06T20:53:38.091Z,77.30
2019-04-06T20:56:06.852Z,76.20
2019-04-06T20:58:35.886Z,76.60
2019-04-06T21:01:04.568Z,75.40
2019-04-06T21:03:33.537Z,74.40
2019-04-06T21:06:02.105Z,73.40
2019-04-06T21:08:30.931Z,74.20
2019-04-06T21:11:00.283Z,74.00
2019-04-06T21:13:29.031Z,74.00
2019-04-06T21:15:57.687Z,73.90
2019-04-06T21:18:26.317Z,74.00
2019-04-06T21:20:54.774Z,74.00
2019-04-06T21:23:23.553Z,75.30
2019-04-06T21:25:52.006Z,74.90
2019-04-06T21:28:20.798Z,74.70
2019-04-06T21:30:49.796Z,74.50
2019-04-06T21:33:18.615Z,74.80
2019-04-06T21:35:47.495Z,75.40
2019-04-06T21:38:16.014Z,75.70
2019-04-06T21:40:44.504Z,76.50
2019-04-06T21:43:13.486Z,77.30
2019-04-06T21:45:42.290Z,77.50
2019-04-06T21:48:10.752Z,78.10
2019-04-06T21:50:39.655Z,79.00
2019-04-06T21:53:08.494Z,78.50
2019-04-06T21:55:36.954Z,80.20
2019-04-06T21:58:05.460Z,80.40
2019-04-06T22:00:44.775Z,79.70
2019-04-06T22:03:13.415Z,78.70
2019-04-06T22:05:42.080Z,78.10
2019-04-06T22:08:10.610Z,77.90
2019-04-06T22:10:39.543Z,77.90
2019-04-06T22:13:08.357Z,78.50
2019-04-06T22:15:37.198Z,77.90
2019-04-06T22:18:06.177Z,77.40
2019-04-06T22:20:34.787Z,77.00
2019-04-06T22:23:03.755Z,76.70
2019-04-06T22:25:32.869Z,75.50
2019-04-06T22:28:02.102Z,77.00
2019-04-06T22:30:30.687Z,77.70
2019-04-06T22:32:59.218Z,78.80
2019-04-06T22:35:28.345Z,79.60
2019-04-06T22:37:57.114Z,80.10
2019-04-06T22:40:25.652Z,80.20
2019-04-06T22:42:54.111Z,79.30
2019-04-06T22:45:24.309Z,79.00
2019-04-06T22:47:53.154Z,81.80
2019-04-06T22:50:22.063Z,80.90
2019-04-06T22:52:51.496Z,80.10
2019-04-06T22:55:20.091Z,81.60
2019-04-06T22:57:48.934Z,82.80
2019-04-06T23:00:27.122Z,82.60
2019-04-06T23:02:57.579Z,84.30
2019-04-06T23:05:33.467Z,85.40
2019-04-06T23:08:01.919Z,87.50
2019-04-06T23:10:30.476Z,88.90
2019-04-06T23:12:59.605Z,89.50
2019-04-06T23:15:28.114Z,89.50
2019-04-06T23:17:56.934Z,90.40
2019-04-06T23:20:25.442Z,90.60
2019-04-06T23:22:53.962Z,91.00
2019-04-06T23:25:22.415Z,91.30
2019-04-06T23:27:50.906Z,91.60
2019-04-06T23:30:19.388Z,91.70
2019-04-06T23:32:47.931Z,91.80
2019-04-06T23:35:16.442Z,92.00
2019-04-06T23:37:44.908Z,92.10
2019-04-06T23:40:13.542Z,92.30
2019-04-06T23:42:42.062Z,92.00
2019-04-06T23:45:11.215Z,91.80
2019-04-06T23:47:40.031Z,91.80
2019-04-06T23:50:08.750Z,91.70
2019-04-06T23:52:37.224Z,91.60
2019-04-06T23:55:08.400Z,91.70
2019-04-06T23:57:37.246Z,91.60
